Time;durP1;ratioP1;P1;durP2;ratioP2;P2;SDS_P1;SDS_P2;PMS_P1;PMS_P2;Temp;Humidity;BMP_temperature;BMP_pressure;BME280_temperature;BME280_humidity;BME280_pressure;Samples;Min_cycle;Max_cycle;Signal;HPM_P1;HPM_P2
2021/06/27 00:00:59;;;;;;;29.67;15.25;;;15.30;99.90;;;;;;4920893;29;20159;-94
2021/06/27 00:03:25;;;;;;;41.17;18.63;;;15.30;99.90;;;;;;4918332;29;20156;-93
2021/06/27 00:05:51;;;;;;;38.38;19.48;;;15.30;99.90;;;;;;4918520;29;20052;-92
2021/06/27 00:08:17;;;;;;;32.80;18.35;;;15.20;99.90;;;;;;4917676;29;20118;-94
2021/06/27 00:10:45;;;;;;;33.17;17.08;;;15.20;99.90;;;;;;4919522;29;20078;-94
2021/06/27 00:13:34;;;;;;;31.98;18.45;;;15.20;99.90;;;;;;4877267;29;20103;-91
2021/06/27 00:16:00;;;;;;;27.20;16.33;;;15.20;99.90;;;;;;4861111;29;20502;-93
2021/06/27 00:18:27;;;;;;;37.15;17.95;;;15.20;99.90;;;;;;4861597;29;20061;-94
2021/06/27 00:21:00;;;;;;;36.38;18.80;;;15.10;99.90;;;;;;4877376;29;20077;-95
2021/06/27 00:23:30;;;;;;;36.50;18.20;;;15.10;99.90;;;;;;4847324;29;20049;-93
2021/06/27 00:25:58;;;;;;;;;;;15.10;99.90;;;;;;4875667;29;20116;-93
2021/06/27 00:28:24;;;;;;;30.92;17.30;;;15.10;99.90;;;;;;4880599;29;19930;-93
2021/06/27 00:30:51;;;;;;;26.33;15.68;;;15.10;99.90;;;;;;4881144;29;20131;-93
2021/06/27 00:33:18;;;;;;;33.28;18.30;;;15.10;99.90;;;;;;4881517;29;20111;-93
2021/06/27 00:35:45;;;;;;;27.45;17.45;;;15.00;99.90;;;;;;4903937;29;20079;-94
2021/06/27 00:38:11;;;;;;;27.30;15.65;;;15.00;99.90;;;;;;4942164;28;20050;-93
2021/06/27 00:40:40;;;;;;;38.17;18.13;;;14.90;99.90;;;;;;4976815;28;20052;-94
2021/06/27 00:43:07;;;;;;;34.22;17.95;;;15.00;99.90;;;;;;4960446;28;20150;-94
2021/06/27 00:45:34;;;;;;;42.13;19.70;;;14.90;99.90;;;;;;4945456;28;20470;-93
2021/06/27 00:48:15;;;;;;;49.88;21.50;;;14.90;99.90;;;;;;4958835;28;20131;-93
2021/06/27 00:50:53;;;;;;;40.65;19.85;;;14.90;99.90;;;;;;4933021;29;20093;-93
2021/06/27 00:53:26;;;;;;;49.78;21.27;;;14.90;99.90;;;;;;4922896;29;20059;-94
2021/06/27 00:55:57;;;;;;;29.23;16.33;;;14.90;99.90;;;;;;4936996;29;20535;-95
2021/06/27 00:58:29;;;;;;;41.50;19.75;;;14.90;99.90;;;;;;4936913;29;20062;-94
2021/06/27 01:00:56;;;;;;;37.42;17.70;;;14.90;99.90;;;;;;4921618;29;20428;-94
2021/06/27 01:03:23;;;;;;;41.58;20.90;;;14.90;99.90;;;;;;4922380;29;20047;-93
2021/06/27 01:05:50;;;;;;;40.15;19.63;;;14.90;99.90;;;;;;4921917;29;20138;-92
2021/06/27 01:08:17;;;;;;;55.35;23.58;;;14.90;99.90;;;;;;4937371;29;20047;-93
2021/06/27 01:10:46;;;;;;;59.15;25.30;;;14.90;99.90;;;;;;4921471;29;20099;-93
2021/06/27 01:13:12;;;;;;;67.70;25.33;;;14.90;99.90;;;;;;4906151;29;20055;-93
2021/06/27 01:15:38;;;;;;;58.15;24.70;;;15.00;99.90;;;;;;4937696;29;20055;-93
2021/06/27 01:18:05;;;;;;;59.83;25.30;;;15.00;99.90;;;;;;4937096;28;20126;-94
2021/06/27 01:27:59;;;;;;;40.90;19.55;;;15.00;99.90;;;;;;4914439;29;20113;-96
2021/06/27 01:30:28;;;;;;;47.05;20.65;;;14.90;99.90;;;;;;4901030;29;20063;-93
2021/06/27 01:32:56;;;;;;;55.33;23.45;;;14.90;99.90;;;;;;4903229;29;20076;-94
2021/06/27 01:35:24;;;;;;;54.03;23.25;;;14.90;99.90;;;;;;4872340;29;20542;-94
2021/06/27 01:38:04;;;;;;;44.97;20.42;;;14.90;99.90;;;;;;4887805;29;20052;-96
2021/06/27 01:40:46;;;;;;;51.45;22.02;;;14.80;99.90;;;;;;4889161;29;20500;-95
2021/06/27 01:46:34;;;;;;;60.08;24.92;;;14.80;99.90;;;;;;4919210;29;20178;-93
2021/06/27 01:49:01;;;;;;;49.05;21.67;;;14.80;99.90;;;;;;4887761;29;20147;-94
2021/06/27 01:55:48;;;;;;;45.47;19.90;;;14.70;99.90;;;;;;4956902;29;20042;-95
2021/06/27 02:02:18;;;;;;;;;;;14.70;99.90;;;;;;4918612;29;20133;-95
2021/06/27 02:05:08;;;;;;;49.80;21.55;;;14.70;99.90;;;;;;4898243;29;19924;-95
2021/06/27 02:07:41;;;;;;;48.03;21.73;;;14.70;99.90;;;;;;4868216;29;20096;-96
2021/06/27 02:14:19;;;;;;;;;;;14.70;99.90;;;;;;4843654;29;20048;-93
2021/06/27 02:17:21;;;;;;;49.63;22.48;;;14.70;99.90;;;;;;4843170;29;19928;-93
2021/06/27 02:20:07;;;;;;;62.00;25.08;;;14.60;99.90;;;;;;4842848;29;20133;-95
2021/06/27 02:23:06;;;;;;;56.60;24.33;;;14.70;99.90;;;;;;4775390;30;20059;-94
2021/06/27 02:25:34;;;;;;;60.60;24.80;;;14.70;99.90;;;;;;4789079;30;20055;-94
2021/06/27 02:28:33;;;;;;;57.17;23.85;;;14.70;99.90;;;;;;4821133;29;20054;-95
2021/06/27 02:31:38;;;;;;;51.90;20.73;;;14.80;99.90;;;;;;4811743;29;20055;-94
2021/06/27 02:34:33;;;;;;;53.63;23.00;;;14.80;99.90;;;;;;4817343;29;20508;-94
2021/06/27 02:37:03;;;;;;;48.88;22.38;;;14.80;99.90;;;;;;4817075;29;20091;-96
2021/06/27 02:39:29;;;;;;;50.35;22.52;;;14.80;99.90;;;;;;4821333;29;20093;-93
2021/06/27 03:02:33;;;;;;;56.17;22.77;;;14.80;99.90;;;;;;4898250;29;20535;-95
2021/06/27 03:12:45;;;;;;;51.35;20.90;;;14.80;99.90;;;;;;4824514;29;19919;-96
2021/06/27 03:15:58;;;;;;;46.13;21.67;;;14.80;99.90;;;;;;4774895;30;20059;-95
2021/06/27 03:18:25;;;;;;;46.20;20.25;;;14.80;99.90;;;;;;4786907;29;20067;-94
2021/06/27 03:20:52;;;;;;;50.50;22.00;;;14.80;99.90;;;;;;4773130;30;20055;-95
2021/06/27 03:23:18;;;;;;;56.65;23.45;;;14.80;99.90;;;;;;4771859;30;20134;-95
2021/06/27 03:25:45;;;;;;;50.22;22.95;;;14.80;99.90;;;;;;4786879;29;20082;-94
2021/06/27 03:28:35;;;;;;;54.38;22.67;;;14.80;99.90;;;;;;4787360;29;20050;-96
2021/06/27 03:31:25;;;;;;;57.60;22.42;;;14.90;99.90;;;;;;4787072;30;20411;-94
2021/06/27 03:41:02;;;;;;;47.75;22.13;;;14.80;99.90;;;;;;4754457;30;20132;-96
2021/06/27 03:43:55;;;;;;;40.13;20.52;;;14.80;99.90;;;;;;4781428;29;20062;-96
2021/06/27 03:46:27;;;;;;;52.03;21.58;;;14.80;99.90;;;;;;4788094;29;20070;-95
2021/06/27 03:48:54;;;;;;;32.80;16.55;;;14.80;99.90;;;;;;4808385;29;20075;-94
2021/06/27 03:51:20;;;;;;;45.38;21.33;;;14.80;99.90;;;;;;4809285;29;20077;-95
2021/06/27 03:53:48;;;;;;;39.92;19.85;;;14.90;99.90;;;;;;4825589;29;20073;-94
2021/06/27 03:56:18;;;;;;;40.80;20.17;;;14.90;99.90;;;;;;4812388;29;20141;-93
2021/06/27 03:58:57;;;;;;;44.85;22.02;;;14.90;99.90;;;;;;4859874;29;20104;-95
2021/06/27 04:01:46;;;;;;;42.97;20.10;;;15.00;99.90;;;;;;4854166;29;20140;-94
2021/06/27 04:04:12;;;;;;;34.20;18.77;;;15.00;99.90;;;;;;4859494;29;20060;-94
2021/06/27 04:06:47;;;;;;;37.83;18.33;;;15.00;99.90;;;;;;4886348;29;20061;-95
2021/06/27 04:09:20;;;;;;;35.70;18.30;;;15.00;99.90;;;;;;4862913;29;20144;-94
2021/06/27 04:11:56;;;;;;;40.67;18.23;;;15.00;99.90;;;;;;4878755;29;20075;-95
2021/06/27 04:14:22;;;;;;;34.08;17.58;;;15.00;99.90;;;;;;4889868;29;20416;-93
2021/06/27 04:16:49;;;;;;;32.58;14.70;;;15.00;99.90;;;;;;4908427;29;20047;-93
2021/06/27 04:19:45;;;;;;;29.92;16.25;;;15.00;99.90;;;;;;4938415;28;20087;-94
2021/06/27 04:22:35;;;;;;;29.17;16.45;;;15.00;99.90;;;;;;4934127;29;20087;-93
2021/06/27 04:25:08;;;;;;;35.13;17.35;;;15.10;99.90;;;;;;4903213;29;20075;-94
2021/06/27 04:27:35;;;;;;;29.67;15.85;;;15.10;99.90;;;;;;4902553;29;20051;-94
2021/06/27 04:30:07;;;;;;;31.50;15.95;;;15.10;99.90;;;;;;4918380;29;20067;-95
2021/06/27 04:32:35;;;;;;;20.90;13.43;;;15.10;99.90;;;;;;4902529;29;20052;-93
2021/06/27 04:35:03;;;;;;;25.05;14.27;;;15.20;99.90;;;;;;4918400;29;20043;-93
2021/06/27 04:37:32;;;;;;;25.80;14.32;;;15.20;99.90;;;;;;4902061;29;20056;-95
2021/06/27 04:39:58;;;;;;;27.98;13.95;;;15.20;99.90;;;;;;4902253;29;20051;-94
2021/06/27 04:42:26;;;;;;;27.40;14.50;;;15.20;99.90;;;;;;4901941;29;20468;-93
2021/06/27 04:44:55;;;;;;;24.25;13.90;;;15.20;99.90;;;;;;4886892;29;20108;-94
2021/06/27 04:47:32;;;;;;;25.00;14.88;;;15.30;99.90;;;;;;4919031;29;20059;-94
2021/06/27 04:49:58;;;;;;;26.65;14.85;;;15.30;99.90;;;;;;4902375;29;20048;-93
2021/06/27 04:52:25;;;;;;;25.30;14.05;;;15.30;99.90;;;;;;4885566;28;20051;-94
2021/06/27 04:54:51;;;;;;;24.48;14.27;;;15.40;99.90;;;;;;4940856;28;20475;-93
2021/06/27 04:57:17;;;;;;;27.48;14.43;;;15.40;99.90;;;;;;4966195;28;20073;-93
2021/06/27 04:59:49;;;;;;;23.15;13.40;;;15.40;99.90;;;;;;4975940;28;20145;-94
2021/06/27 05:02:15;;;;;;;21.08;11.85;;;15.40;99.90;;;;;;4960156;28;20081;-95
2021/06/27 05:04:42;;;;;;;28.48;14.10;;;15.50;99.90;;;;;;4962863;28;20066;-94
2021/06/27 05:07:24;;;;;;;26.42;14.50;;;15.50;99.90;;;;;;4965149;28;20050;-96
2021/06/27 05:09:50;;;;;;;20.60;13.35;;;15.50;99.90;;;;;;4965040;28;20077;-96
2021/06/27 05:12:16;;;;;;;27.52;12.93;;;15.60;99.90;;;;;;4965226;28;20058;-95
2021/06/27 05:14:44;;;;;;;26.52;12.00;;;15.60;99.90;;;;;;4965494;28;20061;-94
2021/06/27 05:17:10;;;;;;;25.30;13.68;;;15.70;99.90;;;;;;4949383;28;20081;-95
2021/06/27 05:19:36;;;;;;;26.75;13.32;;;15.70;99.90;;;;;;4949002;28;20101;-96
2021/06/27 05:22:05;;;;;;;25.52;13.15;;;15.70;99.90;;;;;;4981504;28;20505;-95
2021/06/27 05:24:33;;;;;;;20.92;13.35;;;15.70;99.90;;;;;;4949518;28;20107;-96
2021/06/27 05:27:01;;;;;;;20.67;12.65;;;15.80;99.90;;;;;;4964965;28;20054;-95
2021/06/27 05:29:27;;;;;;;25.35;13.98;;;15.80;99.90;;;;;;4980989;28;20051;-94
2021/06/27 05:31:54;;;;;;;21.75;13.55;;;15.80;99.90;;;;;;4980680;28;20046;-94
2021/06/27 05:34:36;;;;;;;24.23;14.05;;;15.90;99.90;;;;;;4923346;29;20134;-93
2021/06/27 05:37:03;;;;;;;23.58;15.43;;;15.90;99.90;;;;;;4921707;29;20048;-93
2021/06/27 05:39:29;;;;;;;26.88;14.93;;;16.00;99.90;;;;;;4905124;29;20571;-94
2021/06/27 05:41:57;;;;;;;24.38;15.00;;;16.10;99.90;;;;;;4921965;29;20056;-93
2021/06/27 05:44:23;;;;;;;27.10;14.27;;;16.20;99.90;;;;;;4937042;29;20062;-93
2021/06/27 05:50:41;;;;;;;22.05;12.90;;;16.30;99.90;;;;;;4937214;29;20099;-95
2021/06/27 05:58:26;;;;;;;24.17;13.98;;;16.40;99.90;;;;;;4805548;29;20083;-94
2021/06/27 06:00:52;;;;;;;23.23;13.27;;;16.50;99.90;;;;;;4830898;29;20144;-90
2021/06/27 06:03:18;;;;;;;25.50;13.20;;;16.60;99.90;;;;;;4848544;29;20234;-93
2021/06/27 06:05:44;;;;;;;19.27;12.65;;;16.80;99.90;;;;;;4879138;29;20090;-92
2021/06/27 06:08:10;;;;;;;21.13;12.55;;;16.80;99.90;;;;;;4904549;29;20052;-94
2021/06/27 06:10:36;;;;;;;18.00;13.00;;;17.00;99.90;;;;;;4904269;29;20055;-92
2021/06/27 06:13:01;;;;;;;20.73;13.70;;;17.10;99.90;;;;;;4904529;29;20072;-92
2021/06/27 06:15:27;;;;;;;22.13;12.90;;;17.20;99.90;;;;;;4919284;29;20048;-91
2021/06/27 06:17:53;;;;;;;21.95;13.38;;;17.20;99.90;;;;;;4934679;28;20058;-92
2021/06/27 06:20:19;;;;;;;22.52;13.57;;;17.30;99.90;;;;;;4943455;28;20483;-94
2021/06/27 06:22:45;;;;;;;24.20;15.75;;;17.30;99.90;;;;;;4943392;28;20069;-91
2021/06/27 06:25:11;;;;;;;25.98;14.23;;;17.30;99.90;;;;;;4959702;28;20050;-93
2021/06/27 06:27:38;;;;;;;21.35;12.60;;;17.40;99.90;;;;;;4959386;28;20048;-92
2021/06/27 06:30:04;;;;;;;21.85;13.25;;;17.50;99.90;;;;;;4944116;28;20405;-91
2021/06/27 06:32:30;;;;;;;25.25;13.38;;;17.70;99.90;;;;;;4959262;28;20125;-92
2021/06/27 06:34:56;;;;;;;16.75;11.43;;;17.70;99.90;;;;;;4959448;28;20138;-93
2021/06/27 06:37:21;;;;;;;23.63;12.95;;;17.80;99.90;;;;;;4975414;28;20049;-93
2021/06/27 06:39:47;;;;;;;15.60;11.85;;;17.90;99.90;;;;;;4927317;28;20401;-94
2021/06/27 06:42:13;;;;;;;17.75;10.32;;;18.00;99.90;;;;;;4958974;28;20117;-93
2021/06/27 06:44:39;;;;;;;17.75;11.75;;;18.10;99.90;;;;;;4958758;28;20043;-92
2021/06/27 06:47:05;;;;;;;15.00;11.85;;;18.20;99.90;;;;;;4943291;28;20459;-94
2021/06/27 06:49:31;;;;;;;15.32;11.10;;;18.20;99.90;;;;;;4926828;28;20051;-91
2021/06/27 06:51:57;;;;;;;17.77;12.23;;;18.10;99.90;;;;;;4976542;28;20178;-94
2021/06/27 06:54:25;;;;;;;16.33;11.93;;;18.00;99.90;;;;;;4942677;28;20078;-95
2021/06/27 06:56:56;;;;;;;20.67;13.13;;;17.90;99.90;;;;;;4947679;28;20050;-96
2021/06/27 07:31:57;;;;;;;13.52;9.77;;;18.70;99.90;;;;;;5009818;28;20138;-95
2021/06/27 07:35:00;;;;;;;13.15;9.77;;;18.80;99.90;;;;;;4961539;28;20067;-96
2021/06/27 07:37:45;;;;;;;23.63;10.82;;;18.80;99.90;;;;;;4925106;29;20146;-95
2021/06/27 07:40:28;;;;;;;12.05;9.07;;;19.00;99.90;;;;;;4956664;29;20094;-96
2021/06/27 07:48:54;;;;;;;;;;;19.10;99.90;;;;;;5005764;28;20056;-94
2021/06/27 07:51:21;;;;;;;15.88;10.55;;;19.00;99.90;;;;;;4995869;28;19929;-94
2021/06/27 07:53:47;;;;;;;15.40;11.00;;;18.90;99.90;;;;;;5002003;28;20160;-91
2021/06/27 07:56:13;;;;;;;18.88;11.07;;;18.90;99.90;;;;;;5014772;28;20046;-95
2021/06/27 07:58:39;;;;;;;16.10;11.10;;;18.80;99.90;;;;;;4978968;28;20136;-96
2021/06/27 08:01:05;;;;;;;16.80;11.05;;;18.80;99.90;;;;;;4976707;28;20073;-95
2021/06/27 08:03:31;;;;;;;13.63;10.38;;;18.80;99.90;;;;;;4955823;28;20074;-96
2021/06/27 08:05:57;;;;;;;16.80;10.20;;;18.90;99.90;;;;;;4978198;28;20046;-95
2021/06/27 08:08:23;;;;;;;15.73;10.90;;;19.00;99.90;;;;;;4981698;28;20532;-94
2021/06/27 08:10:49;;;;;;;12.35;9.82;;;19.10;99.90;;;;;;4993872;28;20053;-95
2021/06/27 08:13:15;;;;;;;13.57;9.88;;;19.10;99.90;;;;;;4959231;28;20398;-96
2021/06/27 08:15:59;;;;;;;12.75;10.45;;;19.10;99.90;;;;;;4993509;28;20117;-94
2021/06/27 08:18:25;;;;;;;16.52;10.38;;;19.10;99.90;;;;;;4960168;28;20137;-93
2021/06/27 08:20:51;;;;;;;12.18;9.75;;;19.10;99.90;;;;;;4982045;28;20042;-96
2021/06/27 08:23:17;;;;;;;12.98;11.00;;;19.20;99.90;;;;;;5010041;28;20053;-94
2021/06/27 08:25:43;;;;;;;14.60;10.15;;;19.20;99.90;;;;;;4995898;28;20148;-94
2021/06/27 08:28:09;;;;;;;14.98;10.65;;;19.30;99.90;;;;;;5012576;28;20049;-95
2021/06/27 08:30:35;;;;;;;14.10;10.35;;;19.30;99.90;;;;;;5019378;28;20053;-96
2021/06/27 08:33:01;;;;;;;13.27;10.65;;;19.30;99.90;;;;;;5019300;28;20041;-94
2021/06/27 08:35:29;;;;;;;14.70;10.52;;;19.40;99.90;;;;;;4997481;28;20073;-92
2021/06/27 08:37:55;;;;;;;14.43;10.95;;;19.50;99.90;;;;;;4981918;28;20060;-95
2021/06/27 08:40:22;;;;;;;15.63;10.20;;;19.60;99.90;;;;;;5005540;28;20049;-95
2021/06/27 08:42:48;;;;;;;14.07;10.60;;;19.70;99.90;;;;;;5019409;28;20154;-96
2021/06/27 08:45:17;;;;;;;14.93;10.98;;;19.80;99.90;;;;;;5023964;28;20096;-94
2021/06/27 08:47:44;;;;;;;20.80;11.37;;;19.80;99.90;;;;;;5012167;28;20053;-95
2021/06/27 08:50:13;;;;;;;14.80;11.13;;;19.80;99.90;;;;;;4985527;28;20512;-95
2021/06/27 08:52:42;;;;;;;14.97;10.40;;;19.80;99.90;;;;;;5006686;28;20116;-94
2021/06/27 08:55:09;;;;;;;14.73;9.57;;;19.90;99.90;;;;;;5018282;28;20623;-95
2021/06/27 08:57:35;;;;;;;12.43;9.90;;;19.90;99.90;;;;;;5006992;28;20045;-94
2021/06/27 09:00:03;;;;;;;14.70;9.98;;;19.90;99.90;;;;;;4999532;28;20073;-94
2021/06/27 09:02:29;;;;;;;14.77;10.23;;;19.90;99.90;;;;;;4995141;28;20041;-94
2021/06/27 09:04:55;;;;;;;15.88;9.82;;;20.00;99.90;;;;;;4982043;28;20050;-96
2021/06/27 09:07:28;;;;;;;16.85;10.00;;;20.00;99.90;;;;;;4993924;28;20046;-96
2021/06/27 09:10:17;;;;;;;15.18;9.60;;;20.20;99.90;;;;;;4993459;28;20136;-94
2021/06/27 09:12:55;;;;;;;16.27;9.40;;;20.30;99.90;;;;;;5008475;28;20042;-96
2021/06/27 09:15:38;;;;;;;13.82;9.40;;;20.40;99.90;;;;;;4993853;28;20045;-96
2021/06/27 09:18:16;;;;;;;11.48;9.30;;;20.50;99.90;;;;;;5010948;28;20049;-94
2021/06/27 09:20:50;;;;;;;13.18;9.52;;;20.50;99.90;;;;;;5009352;28;20053;-93
2021/06/27 09:23:20;;;;;;;12.50;8.68;;;20.60;99.90;;;;;;5005997;28;20058;-95
2021/06/27 09:25:46;;;;;;;13.55;8.90;;;20.60;99.90;;;;;;4992512;28;20042;-95
2021/06/27 09:28:16;;;;;;;9.68;8.23;;;20.80;99.90;;;;;;4990927;28;20445;-93
2021/06/27 09:30:50;;;;;;;9.43;8.20;;;20.90;99.90;;;;;;4979761;28;20045;-95
2021/06/27 09:33:24;;;;;;;9.40;8.30;;;21.10;99.90;;;;;;4976426;28;20050;-96
2021/06/27 09:35:54;;;;;;;12.20;8.65;;;21.20;99.90;;;;;;4988195;28;20042;-94
2021/06/27 09:38:20;;;;;;;;;;;21.30;99.90;;;;;;5009121;28;20029;-93
2021/06/27 09:40:48;;;;;;;16.42;8.68;;;21.30;99.90;;;;;;5008967;28;19956;-94
2021/06/27 09:43:14;;;;;;;11.48;8.75;;;21.20;99.90;;;;;;5020854;28;20046;-92
2021/06/27 09:45:56;;;;;;;11.02;8.40;;;21.10;99.90;;;;;;5014944;28;20056;-96
2021/06/27 09:48:24;;;;;;;12.80;7.35;;;21.10;99.90;;;;;;5012495;28;20041;-94
2021/06/27 09:50:50;;;;;;;11.20;8.43;;;21.10;99.90;;;;;;5013256;28;20045;-94
2021/06/27 09:53:30;;;;;;;11.23;8.02;;;21.10;99.90;;;;;;5031456;28;20041;-96
2021/06/27 09:55:56;;;;;;;16.05;8.88;;;21.10;99.90;;;;;;5008589;28;20458;-93
2021/06/27 09:58:22;;;;;;;12.15;7.43;;;21.10;99.90;;;;;;4998828;28;20053;-95
2021/06/27 10:00:48;;;;;;;11.50;8.50;;;21.10;99.90;;;;;;5014561;28;20053;-95
2021/06/27 10:03:14;;;;;;;9.65;7.65;;;21.30;99.90;;;;;;5015132;28;20566;-91
2021/06/27 10:05:39;;;;;;;8.25;6.72;;;21.30;99.90;;;;;;4996565;28;20427;-95
2021/06/27 10:08:05;;;;;;;9.85;7.60;;;21.30;99.90;;;;;;5014657;28;20890;-94
2021/06/27 10:10:31;;;;;;;9.68;8.07;;;21.30;99.90;;;;;;5031017;28;20095;-93
2021/06/27 10:12:57;;;;;;;11.57;7.00;;;21.30;99.90;;;;;;5014936;28;20826;-94
2021/06/27 10:15:23;;;;;;;9.48;6.78;;;21.40;99.90;;;;;;5032340;28;20616;-93
2021/06/27 10:17:49;;;;;;;7.13;6.43;;;21.50;99.90;;;;;;5014107;28;20076;-92
2021/06/27 10:20:16;;;;;;;7.28;6.55;;;21.50;99.90;;;;;;5014883;28;20100;-91
2021/06/27 10:22:43;;;;;;;9.27;6.60;;;21.50;99.90;;;;;;5013811;28;20099;-94
2021/06/27 10:25:12;;;;;;;8.02;6.65;;;21.40;99.90;;;;;;5032597;28;20037;-93
2021/06/27 10:27:38;;;;;;;7.32;6.30;;;21.50;99.90;;;;;;5031542;28;20041;-91
2021/06/27 10:30:07;;;;;;;9.25;6.38;;;21.60;99.90;;;;;;5032193;28;20073;-90
2021/06/27 10:32:42;;;;;;;6.95;5.82;;;21.70;99.90;;;;;;5032107;28;20046;-91
2021/06/27 10:35:09;;;;;;;10.57;6.30;;;21.60;99.90;;;;;;5020094;28;20033;-94
2021/06/27 10:37:41;;;;;;;7.00;6.28;;;21.60;99.90;;;;;;5032702;28;20038;-94
2021/06/27 10:40:10;;;;;;;8.07;6.78;;;21.70;99.90;;;;;;5032478;28;20465;-95
2021/06/27 10:42:48;;;;;;;9.33;6.53;;;21.80;99.90;;;;;;5032495;28;20046;-92
2021/06/27 10:45:19;;;;;;;8.43;6.20;;;21.90;99.90;;;;;;5018838;28;20298;-93
2021/06/27 10:47:45;;;;;;;10.20;6.63;;;22.00;99.90;;;;;;5030577;28;20041;-96
2021/06/27 10:50:13;;;;;;;7.78;6.35;;;22.00;99.90;;;;;;5014815;28;20073;-95
2021/06/27 10:52:54;;;;;;;7.90;6.30;;;22.00;99.90;;;;;;5014247;28;20123;-92
2021/06/27 10:55:40;;;;;;;12.50;6.90;;;21.90;99.90;;;;;;5009420;28;20481;-96
2021/06/27 10:58:11;;;;;;;6.95;5.45;;;21.80;99.90;;;;;;5032036;28;20045;-95
2021/06/27 11:00:55;;;;;;;8.10;6.40;;;22.00;99.90;;;;;;5019266;28;20045;-95
2021/06/27 11:03:27;;;;;;;10.32;7.38;;;22.10;99.90;;;;;;5014339;28;20041;-94
2021/06/27 11:05:59;;;;;;;8.23;6.70;;;22.10;99.90;;;;;;5031392;28;20467;-93
2021/06/27 11:08:55;;;;;;;9.05;6.60;;;22.20;99.90;;;;;;4998062;28;20041;-96
2021/06/27 11:11:23;;;;;;;7.47;6.18;;;22.20;99.90;;;;;;5010792;28;20045;-92
2021/06/27 11:14:20;;;;;;;9.70;6.53;;;22.30;99.90;;;;;;5009659;28;20095;-95
2021/06/27 11:17:06;;;;;;;6.88;6.18;;;22.30;99.90;;;;;;5014659;28;20292;-96
2021/06/27 11:19:38;;;;;;;6.72;5.88;;;22.20;99.90;;;;;;5038598;28;20061;-94
2021/06/27 11:22:21;;;;;;;8.00;6.95;;;22.20;99.90;;;;;;5015311;28;20048;-95
2021/06/27 11:24:50;;;;;;;10.95;7.03;;;22.20;99.90;;;;;;5028855;28;20037;-94
2021/06/27 11:27:32;;;;;;;7.22;6.43;;;22.00;99.90;;;;;;5014016;28;20124;-94
2021/06/27 11:29:59;;;;;;;5.93;5.32;;;22.00;99.90;;;;;;5022989;28;20041;-92
2021/06/27 11:32:25;;;;;;;11.20;5.95;;;22.00;99.90;;;;;;5038231;28;20532;-93
2021/06/27 11:34:58;;;;;;;12.55;6.57;;;22.20;99.90;;;;;;5017280;28;20049;-91
2021/06/27 11:37:24;;;;;;;8.05;5.85;;;22.30;99.90;;;;;;5004379;28;20042;-91
2021/06/27 11:39:54;;;;;;;10.63;5.80;;;22.40;99.90;;;;;;5023328;28;20553;-91
2021/06/27 11:42:26;;;;;;;8.57;5.90;;;22.50;99.90;;;;;;5024232;28;20049;-90
2021/06/27 11:45:07;;;;;;;7.88;6.32;;;22.50;99.90;;;;;;5031964;28;20463;-95
2021/06/27 11:47:37;;;;;;;7.60;6.05;;;22.50;99.90;;;;;;5013016;28;20062;-95
2021/06/27 11:50:15;;;;;;;6.88;5.90;;;22.60;99.90;;;;;;5027853;28;20119;-96
2021/06/27 11:52:41;;;;;;;7.70;6.30;;;22.70;99.90;;;;;;5014293;28;20470;-96
2021/06/27 11:55:07;;;;;;;9.18;5.00;;;22.60;99.90;;;;;;5032975;28;20046;-94
2021/06/27 11:57:42;;;;;;;6.88;4.82;;;22.80;99.90;;;;;;5015183;28;20527;-96
2021/06/27 12:00:12;;;;;;;6.13;5.53;;;23.20;99.90;;;;;;5010453;28;21273;-96
2021/06/27 12:02:38;;;;;;;10.40;6.15;;;23.50;99.90;;;;;;5019246;28;20042;-96
2021/06/27 12:05:15;;;;;;;5.85;5.22;;;23.60;99.90;;;;;;5013369;28;20046;-95
2021/06/27 12:07:46;;;;;;;6.45;5.82;;;23.50;99.90;;;;;;5018313;28;20042;-95
2021/06/27 12:10:18;;;;;;;7.05;5.85;;;23.40;99.90;;;;;;5008993;28;20060;-95
2021/06/27 12:13:20;;;;;;;8.90;5.25;;;23.20;99.90;;;;;;5028029;28;20038;-96
2021/06/27 12:15:49;;;;;;;5.93;5.35;;;23.10;99.90;;;;;;5005920;28;20053;-93
2021/06/27 12:18:24;;;;;;;6.80;5.60;;;23.10;99.90;;;;;;4985563;28;20042;-95
2021/06/27 12:20:56;;;;;;;5.78;5.28;;;23.20;99.90;;;;;;5024087;28;20045;-95
2021/06/27 12:23:37;;;;;;;7.95;5.32;;;23.60;99.90;;;;;;5026848;28;20504;-94
2021/06/27 12:26:04;;;;;;;7.40;6.55;;;24.00;99.90;;;;;;5009874;28;20065;-96
2021/06/27 12:28:34;;;;;;;6.20;5.28;;;24.00;99.90;;;;;;5007587;28;20056;-95
2021/06/27 12:31:19;;;;;;;7.40;5.55;;;24.20;99.90;;;;;;5009826;28;20410;-96
2021/06/27 12:33:56;;;;;;;10.60;5.90;;;24.10;99.90;;;;;;5019312;28;20049;-96
2021/06/27 12:36:27;;;;;;;8.20;4.80;;;23.90;99.90;;;;;;5013202;28;20474;-96
2021/06/27 12:38:56;;;;;;;6.13;5.07;;;23.80;99.90;;;;;;5007722;28;20042;-96
2021/06/27 12:41:27;;;;;;;5.55;4.88;;;24.20;99.90;;;;;;5023485;28;20089;-93
2021/06/27 12:44:04;;;;;;;7.13;5.10;;;24.40;99.90;;;;;;5010624;28;20433;-96
2021/06/27 12:46:47;;;;;;;6.00;5.07;;;24.50;99.90;;;;;;4997262;28;20141;-95
2021/06/27 12:49:16;;;;;;;6.78;4.38;;;24.40;99.90;;;;;;5019199;28;20099;-95
2021/06/27 12:51:43;;;;;;;4.32;3.92;;;24.30;99.90;;;;;;5026221;28;20037;-95
2021/06/27 12:54:18;;;;;;;7.20;4.90;;;24.90;99.90;;;;;;5021008;28;20044;-94
2021/06/27 12:57:01;;;;;;;4.43;4.03;;;25.00;99.90;;;;;;5025812;28;20042;-96
2021/06/27 12:59:37;;;;;;;6.53;3.65;;;24.90;99.90;;;;;;5007638;28;20045;-92
2021/06/27 13:02:26;;;;;;;5.43;3.65;;;25.10;99.90;;;;;;5008883;28;20089;-96
2021/06/27 13:04:59;;;;;;;4.13;3.70;;;25.80;99.90;;;;;;5009693;28;20049;-95
2021/06/27 13:07:25;;;;;;;3.80;3.00;;;26.20;99.90;;;;;;5018009;28;20042;-94
2021/06/27 13:10:07;;;;;;;4.53;3.25;;;26.80;99.90;;;;;;5009079;28;20504;-94
2021/06/27 13:12:47;;;;;;;4.45;3.47;;;26.70;99.90;;;;;;5014964;28;20048;-95
2021/06/27 13:15:19;;;;;;;7.50;3.70;;;25.90;99.90;;;;;;5010127;28;20046;-95
2021/06/27 13:17:48;;;;;;;3.45;3.25;;;25.30;99.90;;;;;;5003012;28;20034;-96
2021/06/27 13:20:23;;;;;;;4.15;3.85;;;25.20;99.90;;;;;;5011185;28;20269;-95
2021/06/27 13:22:56;;;;;;;3.65;2.83;;;25.10;99.90;;;;;;5007227;28;20034;-94
2021/06/27 13:25:40;;;;;;;5.20;3.38;;;25.50;99.90;;;;;;5003696;28;20049;-94
2021/06/27 13:28:12;;;;;;;4.35;2.88;;;25.60;99.90;;;;;;5016586;28;20486;-95
2021/06/27 13:30:44;;;;;;;4.32;3.40;;;25.60;99.90;;;;;;5030867;28;20072;-95
2021/06/27 13:33:11;;;;;;;4.60;3.75;;;25.50;99.90;;;;;;5008611;28;20065;-95
2021/06/27 13:35:46;;;;;;;2.78;2.50;;;25.40;99.90;;;;;;5005125;28;20065;-96
2021/06/27 13:38:16;;;;;;;3.72;3.42;;;25.50;99.90;;;;;;5028366;28;20042;-95
2021/06/27 13:40:49;;;;;;;4.28;3.15;;;25.40;99.90;;;;;;4994521;28;20087;-94
2021/06/27 13:43:17;;;;;;;5.03;2.53;;;25.40;99.90;;;;;;5000593;28;20033;-95
2021/06/27 13:45:43;;;;;;;3.08;2.78;;;25.60;99.90;;;;;;5015572;28;20050;-95
2021/06/27 13:48:09;;;;;;;3.13;3.00;;;26.10;99.90;;;;;;5019070;28;20469;-94
2021/06/27 13:50:35;;;;;;;2.65;2.45;;;26.00;99.90;;;;;;4992772;28;20077;-92
2021/06/27 13:53:01;;;;;;;2.75;2.55;;;26.00;99.90;;;;;;5004668;28;20041;-92
2021/06/27 13:55:28;;;;;;;2.85;2.65;;;26.20;99.90;;;;;;5016949;28;20046;-94
2021/06/27 13:57:54;;;;;;;3.15;2.67;;;26.60;99.90;;;;;;5034906;28;20244;-94
2021/06/27 14:00:21;;;;;;;3.08;2.88;;;26.50;99.90;;;;;;5016329;28;20128;-94
2021/06/27 14:02:47;;;;;;;3.30;3.00;;;26.40;99.90;;;;;;5034090;28;20453;-94
2021/06/27 14:05:16;;;;;;;2.70;2.60;;;26.20;99.90;;;;;;5000829;28;20180;-94
2021/06/27 14:07:43;;;;;;;2.80;2.60;;;26.00;99.90;;;;;;5000560;28;20057;-95
2021/06/27 14:10:11;;;;;;;2.53;2.22;;;25.80;99.90;;;;;;5027263;28;20803;-94
2021/06/27 14:12:37;;;;;;;4.90;2.80;;;26.20;99.90;;;;;;5015892;28;20547;-94
2021/06/27 14:15:05;;;;;;;2.53;2.33;;;26.30;99.90;;;;;;5025188;28;20046;-96
2021/06/27 14:17:31;;;;;;;2.97;2.78;;;26.10;99.90;;;;;;5027120;28;20042;-94
2021/06/27 14:19:57;;;;;;;3.28;2.97;;;25.90;99.90;;;;;;5016371;28;20046;-95
2021/06/27 14:22:23;;;;;;;2.63;2.53;;;25.60;99.90;;;;;;4992271;28;20050;-94
2021/06/27 14:24:49;;;;;;;7.03;2.90;;;25.40;99.90;;;;;;5024331;28;20088;-94
2021/06/27 14:27:16;;;;;;;3.80;2.22;;;25.70;99.90;;;;;;5015502;28;20063;-94
2021/06/27 14:29:43;;;;;;;2.85;2.63;;;26.40;99.90;;;;;;5015486;28;20044;-95
2021/06/27 14:32:09;;;;;;;2.80;2.60;;;27.20;99.90;;;;;;4998263;28;20045;-95
2021/06/27 14:34:36;;;;;;;3.25;2.45;;;27.00;99.90;;;;;;5005275;28;20073;-93
2021/06/27 14:37:04;;;;;;;5.38;2.75;;;26.50;99.90;;;;;;5004039;28;20485;-95
2021/06/27 14:39:31;;;;;;;3.65;2.38;;;26.20;99.90;;;;;;5021041;28;20042;-95
2021/06/27 14:41:58;;;;;;;2.60;2.40;;;26.20;99.90;;;;;;5019943;28;20095;-94